createdAt,value
2023-11-28T00:00:13.031Z,37.76
2023-11-28T00:00:44.457Z,37.92
2023-11-28T00:01:15.886Z,37.67
2023-11-28T00:01:47.526Z,38.13
2023-11-28T00:02:19.240Z,38.05
2023-11-28T00:02:50.917Z,38.12
2023-11-28T00:03:22.479Z,37.87
2023-11-28T00:03:53.949Z,38.29
2023-11-28T00:04:25.508Z,37.62
2023-11-28T00:04:57.132Z,38.12
2023-11-28T00:05:28.602Z,37.90
2023-11-28T00:06:00.054Z,37.85
2023-11-28T00:06:31.543Z,37.59
2023-11-28T00:07:03.054Z,37.58
2023-11-28T00:07:34.552Z,37.81
2023-11-28T00:08:06.289Z,37.78
2023-11-28T00:08:37.745Z,37.59
2023-11-28T00:09:09.179Z,38.04
2023-11-28T00:09:40.628Z,37.54
2023-11-28T00:10:12.080Z,37.99
2023-11-28T00:10:43.625Z,37.88
2023-11-28T00:11:15.152Z,37.59
2023-11-28T00:11:46.600Z,38.00
2023-11-28T00:12:18.022Z,37.94
2023-11-28T00:12:49.456Z,37.52
2023-11-28T00:13:20.895Z,37.79
2023-11-28T00:13:52.625Z,37.84
2023-11-28T00:14:24.123Z,38.00
2023-11-28T00:14:55.556Z,37.90
2023-11-28T00:15:27.025Z,37.89
2023-11-28T00:15:58.530Z,37.92
2023-11-28T00:16:30.126Z,37.74
2023-11-28T00:17:01.788Z,37.65
2023-11-28T00:17:33.411Z,37.88
2023-11-28T00:18:05.020Z,37.35
2023-11-28T00:18:36.621Z,37.81
2023-11-28T00:19:08.165Z,38.11
2023-11-28T00:19:39.670Z,37.70
2023-11-28T00:20:11.104Z,37.59
2023-11-28T00:20:42.637Z,37.56
2023-11-28T00:21:14.137Z,37.70
2023-11-28T00:21:48.996Z,37.55
2023-11-28T00:22:20.700Z,37.76
2023-11-28T00:22:52.179Z,38.08
2023-11-28T00:23:23.649Z,37.90
2023-11-28T00:23:55.094Z,37.61
2023-11-28T00:24:26.529Z,37.98
2023-11-28T00:24:57.963Z,38.16
2023-11-28T00:25:29.575Z,38.01
2023-11-28T00:26:01.158Z,37.83
2023-11-28T00:26:32.612Z,38.00
2023-11-28T00:27:04.066Z,37.80
2023-11-28T00:27:35.512Z,38.00
2023-11-28T00:28:06.953Z,37.71
2023-11-28T00:28:38.447Z,38.00
2023-11-28T00:29:09.886Z,37.89
2023-11-28T00:29:41.314Z,37.65
2023-11-28T00:30:12.743Z,38.29
2023-11-28T00:30:44.269Z,37.98
2023-11-28T00:31:15.758Z,37.89
2023-11-28T00:31:47.314Z,38.02
2023-11-28T00:32:18.959Z,37.72
2023-11-28T00:32:50.453Z,38.10
2023-11-28T00:33:21.938Z,37.98
2023-11-28T00:33:53.376Z,37.99
2023-11-28T00:34:24.831Z,37.99
2023-11-28T00:34:56.344Z,38.00
2023-11-28T00:35:27.919Z,37.46
2023-11-28T00:35:59.353Z,38.00
2023-11-28T00:36:30.809Z,37.86
2023-11-28T00:37:02.255Z,37.67
2023-11-28T00:37:33.721Z,38.00
2023-11-28T00:38:05.175Z,38.16
2023-11-28T00:38:36.598Z,38.26
2023-11-28T00:39:08.034Z,37.81
2023-11-28T00:39:39.563Z,38.22
2023-11-28T00:40:11.028Z,37.82
2023-11-28T00:40:42.495Z,38.32
2023-11-28T00:41:13.959Z,37.82
2023-11-28T00:41:45.575Z,38.19
2023-11-28T00:42:17.044Z,38.34
2023-11-28T00:42:48.494Z,37.96
2023-11-28T00:43:19.935Z,38.26
2023-11-28T00:43:51.394Z,38.20
2023-11-28T00:44:22.899Z,38.31
2023-11-28T00:44:54.342Z,38.03
2023-11-28T00:45:25.786Z,38.44
2023-11-28T00:45:57.211Z,38.18
2023-11-28T00:46:28.840Z,38.03
2023-11-28T00:47:00.450Z,38.30
2023-11-28T00:47:32.015Z,37.88
2023-11-28T00:48:03.622Z,38.13
2023-11-28T00:48:35.139Z,38.34
2023-11-28T00:49:06.683Z,38.21
2023-11-28T00:49:38.163Z,38.13
2023-11-28T00:50:09.612Z,37.99
2023-11-28T00:50:41.048Z,38.21
2023-11-28T00:51:12.485Z,37.85
2023-11-28T00:51:43.937Z,37.71
2023-11-28T00:52:16.879Z,38.04
2023-11-28T00:52:49.721Z,37.94
2023-11-28T00:53:21.246Z,38.38
2023-11-28T00:53:52.744Z,38.16
2023-11-28T00:54:24.268Z,38.14
2023-11-28T00:54:55.701Z,38.11
2023-11-28T00:55:27.156Z,38.03
2023-11-28T00:55:58.665Z,38.29
2023-11-28T00:56:30.122Z,37.79
2023-11-28T00:57:01.565Z,37.76
2023-11-28T00:57:32.999Z,38.17
2023-11-28T00:58:04.447Z,37.82
2023-11-28T00:58:35.976Z,38.27
2023-11-28T00:59:07.484Z,38.06
2023-11-28T00:59:38.945Z,38.01
2023-11-28T01:00:10.396Z,38.20
2023-11-28T01:00:41.831Z,38.06
2023-11-28T01:01:13.258Z,37.98
2023-11-28T01:01:44.742Z,38.14
2023-11-28T01:02:16.322Z,38.08
2023-11-28T01:02:47.954Z,37.78
2023-11-28T01:03:19.611Z,37.92
2023-11-28T01:03:51.148Z,38.34
2023-11-28T01:04:22.684Z,37.71
2023-11-28T01:04:54.232Z,37.83
2023-11-28T01:05:25.699Z,38.02
2023-11-28T01:05:57.154Z,38.22
2023-11-28T01:06:28.601Z,38.18
2023-11-28T01:07:00.046Z,38.09
2023-11-28T01:07:31.509Z,37.97
2023-11-28T01:08:03.105Z,37.77
2023-11-28T01:08:34.610Z,38.19
2023-11-28T01:09:06.045Z,38.27
2023-11-28T01:09:37.476Z,38.00
2023-11-28T01:10:09.010Z,38.19
2023-11-28T01:10:40.536Z,37.87
2023-11-28T01:11:12.005Z,38.11
2023-11-28T01:11:43.466Z,38.10
2023-11-28T01:12:14.903Z,37.78
2023-11-28T01:12:46.401Z,38.09
2023-11-28T01:13:17.932Z,38.32
2023-11-28T01:13:49.429Z,37.84
2023-11-28T01:14:20.912Z,38.13
2023-11-28T01:14:52.348Z,37.75
2023-11-28T01:15:23.782Z,38.22
2023-11-28T01:15:55.240Z,38.11
2023-11-28T01:16:26.769Z,38.52
2023-11-28T01:16:58.320Z,38.37
2023-11-28T01:17:29.866Z,37.77
2023-11-28T01:18:01.433Z,37.66
2023-11-28T01:18:32.884Z,38.14
2023-11-28T01:19:04.333Z,38.02
2023-11-28T01:19:35.844Z,37.94
2023-11-28T01:20:07.343Z,38.02
2023-11-28T01:20:38.784Z,38.17
2023-11-28T01:21:10.211Z,38.29
2023-11-28T01:21:41.646Z,38.04
2023-11-28T01:22:13.125Z,38.02
2023-11-28T01:22:44.663Z,37.99
2023-11-28T01:23:16.147Z,38.23
2023-11-28T01:23:47.578Z,37.90
2023-11-28T01:24:19.033Z,37.99
2023-11-28T01:24:50.473Z,37.90
2023-11-28T01:25:21.933Z,38.06
2023-11-28T01:25:53.418Z,37.81
2023-11-28T01:26:24.905Z,37.88
2023-11-28T01:26:56.418Z,38.05
2023-11-28T01:27:27.941Z,38.28
2023-11-28T01:27:59.372Z,37.74
2023-11-28T01:28:30.827Z,37.82
2023-11-28T01:29:02.308Z,37.66
2023-11-28T01:29:33.785Z,37.85
2023-11-28T01:30:05.244Z,37.81
2023-11-28T01:30:36.688Z,38.06
2023-11-28T01:31:08.141Z,38.08
2023-11-28T01:31:39.661Z,37.81
2023-11-28T01:32:11.353Z,38.19
2023-11-28T01:32:42.958Z,37.94
2023-11-28T01:33:14.473Z,38.02
2023-11-28T01:33:45.912Z,38.16
2023-11-28T01:34:18.107Z,38.45
2023-11-28T01:34:49.768Z,38.26
2023-11-28T01:35:21.215Z,37.85
2023-11-28T01:35:52.643Z,38.15
2023-11-28T01:36:24.087Z,37.83
2023-11-28T01:36:55.582Z,37.78
2023-11-28T01:37:27.053Z,37.86
2023-11-28T01:38:00.486Z,37.85
2023-11-28T01:38:32.166Z,37.69
2023-11-28T01:39:03.592Z,38.12
2023-11-28T01:39:35.024Z,37.78
2023-11-28T01:40:06.464Z,38.13
2023-11-28T01:40:37.903Z,37.92
2023-11-28T01:41:09.503Z,38.36
2023-11-28T01:41:40.964Z,38.09
2023-11-28T01:42:12.392Z,37.55
2023-11-28T01:42:43.830Z,37.76
2023-11-28T01:43:15.266Z,37.88
2023-11-28T01:43:46.724Z,38.08
2023-11-28T01:44:18.158Z,38.00
2023-11-28T01:44:49.601Z,38.14
2023-11-28T01:45:21.030Z,37.69
2023-11-28T01:45:52.513Z,37.98
2023-11-28T01:46:23.960Z,38.37
2023-11-28T01:46:55.476Z,37.83
2023-11-28T01:47:26.964Z,37.88
2023-11-28T01:47:58.439Z,38.22
2023-11-28T01:48:29.885Z,38.17
2023-11-28T01:49:01.327Z,38.04
2023-11-28T01:49:32.771Z,38.11
2023-11-28T01:50:04.346Z,37.95
2023-11-28T01:50:35.939Z,38.05
2023-11-28T01:51:07.475Z,38.21
2023-11-28T01:51:38.942Z,38.16
2023-11-28T01:52:10.377Z,38.05
2023-11-28T01:52:41.874Z,38.06
2023-11-28T01:53:13.361Z,38.02
2023-11-28T01:53:44.833Z,38.20
2023-11-28T01:54:16.269Z,38.26
2023-11-28T01:54:47.697Z,37.90
2023-11-28T01:55:19.193Z,37.77
2023-11-28T01:55:50.719Z,38.45
2023-11-28T01:56:22.197Z,38.13
2023-11-28T01:56:53.656Z,37.82
2023-11-28T01:57:25.106Z,38.35
2023-11-28T01:57:56.537Z,38.37
2023-11-28T01:58:27.991Z,37.98
2023-11-28T01:58:59.511Z,38.27
2023-11-28T01:59:30.968Z,38.23
2023-11-28T02:00:02.450Z,37.95
2023-11-28T02:00:33.938Z,38.20
2023-11-28T02:01:05.400Z,38.03
2023-11-28T02:01:37.088Z,38.26
2023-11-28T02:02:08.728Z,38.20
2023-11-28T02:02:40.520Z,38.53
2023-11-28T02:03:12.370Z,38.33
2023-11-28T02:03:43.962Z,38.40
2023-11-28T02:04:15.573Z,38.01
2023-11-28T02:04:47.230Z,37.94
2023-11-28T02:05:18.780Z,38.00
2023-11-28T02:05:50.202Z,38.15
2023-11-28T02:06:21.627Z,38.04
2023-11-28T02:06:53.067Z,38.06
2023-11-28T02:07:24.615Z,38.21
2023-11-28T02:07:56.128Z,38.02
2023-11-28T02:08:27.569Z,38.06
2023-11-28T02:08:59.011Z,38.13
2023-11-28T02:09:30.571Z,38.13
2023-11-28T02:10:02.035Z,38.27
2023-11-28T02:10:33.513Z,38.28
2023-11-28T02:11:04.966Z,38.18
2023-11-28T02:11:36.420Z,38.19
2023-11-28T02:12:07.931Z,37.91
2023-11-28T02:12:39.377Z,38.11
2023-11-28T02:13:12.121Z,38.11
2023-11-28T02:13:43.896Z,38.20
2023-11-28T02:14:15.433Z,38.38
2023-11-28T02:14:46.943Z,38.29
2023-11-28T02:15:18.374Z,38.44
2023-11-28T02:15:49.818Z,38.24
2023-11-28T02:16:21.283Z,38.38
2023-11-28T02:16:52.790Z,37.98
2023-11-28T02:17:24.250Z,38.24
2023-11-28T02:17:55.775Z,38.53
2023-11-28T02:18:27.219Z,38.30
2023-11-28T02:18:58.761Z,38.09
2023-11-28T02:19:30.314Z,38.04
2023-11-28T02:20:01.879Z,37.93
2023-11-28T02:20:33.399Z,38.06
2023-11-28T02:21:04.867Z,38.35
2023-11-28T02:21:36.297Z,38.15
2023-11-28T02:22:07.728Z,38.36
2023-11-28T02:22:39.177Z,38.49
2023-11-28T02:23:10.778Z,38.15
2023-11-28T02:23:42.375Z,38.22
2023-11-28T02:24:13.902Z,38.21
2023-11-28T02:24:45.339Z,37.80
2023-11-28T02:25:16.767Z,37.99
2023-11-28T02:25:48.474Z,37.88
2023-11-28T02:26:19.986Z,38.09
2023-11-28T02:26:51.422Z,37.85
2023-11-28T02:27:22.860Z,38.08
2023-11-28T02:27:54.291Z,37.72
2023-11-28T02:28:25.882Z,38.09
2023-11-28T02:28:57.693Z,38.38
2023-11-28T02:29:29.204Z,38.22
2023-11-28T02:30:00.651Z,37.93
2023-11-28T02:30:32.130Z,38.04
2023-11-28T02:31:03.571Z,38.08
2023-11-28T02:31:35.094Z,38.55
2023-11-28T02:32:06.619Z,38.42
2023-11-28T02:32:38.280Z,38.15
2023-11-28T02:33:09.804Z,38.21
2023-11-28T02:33:41.365Z,38.02
2023-11-28T02:34:12.813Z,38.06
2023-11-28T02:34:44.293Z,38.21
2023-11-28T02:35:21.103Z,38.05
2023-11-28T02:35:54.860Z,38.50
2023-11-28T02:36:26.290Z,38.07
2023-11-28T02:36:57.743Z,38.13
2023-11-28T02:37:29.208Z,38.26
2023-11-28T02:38:00.710Z,38.44
2023-11-28T02:38:32.218Z,38.29
2023-11-28T02:39:03.646Z,38.20
2023-11-28T02:39:35.079Z,38.31
2023-11-28T02:40:06.509Z,38.16
2023-11-28T02:40:37.968Z,38.06
2023-11-28T02:41:09.530Z,38.55
2023-11-28T02:41:40.988Z,38.43
2023-11-28T02:42:12.420Z,38.32
2023-11-28T02:42:43.934Z,38.00
2023-11-28T02:43:15.389Z,38.56
2023-11-28T02:43:46.869Z,38.25
2023-11-28T02:44:18.351Z,38.27
2023-11-28T02:44:49.802Z,37.93
2023-11-28T02:45:21.238Z,38.16
2023-11-28T02:45:52.733Z,38.26
2023-11-28T02:46:24.202Z,37.95
2023-11-28T02:46:55.704Z,37.99
2023-11-28T02:47:27.236Z,38.32
2023-11-28T02:47:58.749Z,38.10
2023-11-28T02:48:30.204Z,38.45
2023-11-28T02:49:01.667Z,38.36
2023-11-28T02:49:33.143Z,38.24
2023-11-28T02:50:04.637Z,38.59
2023-11-28T02:50:36.119Z,38.15
2023-11-28T02:51:07.547Z,38.50
2023-11-28T02:51:38.979Z,38.26
2023-11-28T02:52:10.461Z,37.85
2023-11-28T02:52:41.949Z,38.50
2023-11-28T02:53:13.409Z,38.46
2023-11-28T02:53:44.841Z,37.68
2023-11-28T02:54:16.270Z,38.37
2023-11-28T02:54:47.709Z,38.31
2023-11-28T02:55:19.152Z,38.52
2023-11-28T02:55:50.647Z,38.29
2023-11-28T02:56:22.131Z,38.13
2023-11-28T02:56:53.684Z,38.03
2023-11-28T02:57:25.201Z,38.80
2023-11-28T02:57:56.645Z,38.10
2023-11-28T02:58:28.130Z,37.91
2023-11-28T02:58:59.610Z,38.45
2023-11-28T02:59:31.073Z,38.02
2023-11-28T03:00:02.532Z,38.04
2023-11-28T03:00:33.956Z,38.54
2023-11-28T03:01:05.401Z,38.25
2023-11-28T03:01:37.099Z,38.11
2023-11-28T03:02:08.964Z,37.84
2023-11-28T03:02:40.606Z,38.29
2023-11-28T03:03:12.240Z,38.47
2023-11-28T03:03:43.801Z,38.55
2023-11-28T03:04:15.277Z,38.08
2023-11-28T03:04:46.745Z,37.98
2023-11-28T03:05:18.237Z,38.56
2023-11-28T03:05:49.673Z,38.12
2023-11-28T03:06:21.170Z,38.34
2023-11-28T03:06:52.647Z,38.30
2023-11-28T03:07:24.088Z,38.20
2023-11-28T03:07:55.559Z,38.11
2023-11-28T03:08:27.018Z,38.10
2023-11-28T03:08:58.469Z,38.46
2023-11-28T03:09:29.907Z,38.34
2023-11-28T03:10:01.337Z,38.59
2023-11-28T03:10:32.801Z,38.13
2023-11-28T03:11:04.452Z,38.63
2023-11-28T03:11:35.995Z,38.33
2023-11-28T03:12:07.442Z,38.15
2023-11-28T03:12:38.891Z,38.34
2023-11-28T03:13:10.332Z,38.20
2023-11-28T03:13:41.793Z,38.31
2023-11-28T03:14:13.327Z,38.45
2023-11-28T03:14:44.770Z,38.26
2023-11-28T03:15:16.196Z,38.41
2023-11-28T03:15:47.679Z,38.66
2023-11-28T03:16:19.247Z,38.62
2023-11-28T03:16:50.787Z,38.58
2023-11-28T03:17:22.300Z,38.58
2023-11-28T03:17:53.810Z,38.65
2023-11-28T03:18:25.289Z,38.41
2023-11-28T03:18:56.737Z,38.58
2023-11-28T03:19:28.172Z,38.41
2023-11-28T03:19:59.649Z,38.18
2023-11-28T03:20:31.182Z,38.03
2023-11-28T03:21:02.657Z,37.98
2023-11-28T03:21:34.095Z,38.08
2023-11-28T03:22:05.541Z,38.41
2023-11-28T03:22:36.988Z,38.26
2023-11-28T03:23:08.487Z,38.26
2023-11-28T03:23:39.939Z,38.26
2023-11-28T03:24:11.375Z,38.31
2023-11-28T03:24:42.821Z,38.15
2023-11-28T03:25:14.330Z,38.08
2023-11-28T03:25:45.844Z,38.36
2023-11-28T03:26:17.289Z,38.35
2023-11-28T03:26:48.709Z,38.15
2023-11-28T03:27:20.186Z,38.33
2023-11-28T03:27:51.649Z,38.57
2023-11-28T03:28:23.081Z,38.25
2023-11-28T03:28:54.583Z,38.55
2023-11-28T03:29:26.072Z,38.12
2023-11-28T03:29:57.579Z,38.21
2023-11-28T03:30:29.101Z,38.37
2023-11-28T03:31:00.543Z,38.04
2023-11-28T03:31:32.076Z,38.55
2023-11-28T03:32:03.605Z,38.14
2023-11-28T03:32:35.281Z,38.56
2023-11-28T03:33:06.836Z,38.17
2023-11-28T03:33:38.284Z,38.41
2023-11-28T03:34:09.712Z,38.38
2023-11-28T03:34:41.258Z,38.45
2023-11-28T03:35:12.776Z,38.22
2023-11-28T03:35:44.212Z,38.51
2023-11-28T03:36:15.656Z,38.31
2023-11-28T03:36:47.084Z,38.49
2023-11-28T03:37:18.519Z,38.40
2023-11-28T03:37:50.044Z,38.81
2023-11-28T03:38:21.548Z,38.38
2023-11-28T03:38:52.990Z,38.51
2023-11-28T03:39:24.424Z,38.56
2023-11-28T03:39:55.888Z,38.39
2023-11-28T03:40:27.326Z,38.34
2023-11-28T03:40:58.774Z,38.19
2023-11-28T03:41:30.215Z,38.39
2023-11-28T03:42:01.702Z,38.61
2023-11-28T03:42:33.138Z,38.37
2023-11-28T03:43:04.573Z,38.34
2023-11-28T03:43:36.029Z,38.32
2023-11-28T03:44:07.618Z,38.53
2023-11-28T03:44:39.089Z,38.35
2023-11-28T03:45:10.526Z,38.47
2023-11-28T03:45:41.978Z,38.68
2023-11-28T03:46:13.488Z,38.14
2023-11-28T03:46:45.012Z,38.37
2023-11-28T03:47:16.505Z,38.51
2023-11-28T03:47:47.978Z,38.69
2023-11-28T03:48:19.434Z,38.18
2023-11-28T03:48:50.963Z,38.28
2023-11-28T03:49:22.434Z,38.54
2023-11-28T03:49:53.928Z,38.29
2023-11-28T03:50:25.403Z,38.32
2023-11-28T03:50:56.828Z,38.00
2023-11-28T03:51:28.278Z,38.47
2023-11-28T03:51:59.713Z,38.54
2023-11-28T03:52:31.149Z,38.29
2023-11-28T03:53:02.614Z,38.44
2023-11-28T03:53:34.115Z,38.41
2023-11-28T03:54:05.572Z,38.75
2023-11-28T03:54:36.999Z,38.31
2023-11-28T03:55:08.429Z,38.47
2023-11-28T03:55:39.902Z,38.35
2023-11-28T03:56:11.343Z,38.63
2023-11-28T03:56:42.791Z,38.36
2023-11-28T03:57:14.276Z,38.15
2023-11-28T03:57:45.836Z,38.03
2023-11-28T03:58:17.430Z,38.59
2023-11-28T03:58:48.978Z,38.61
2023-11-28T03:59:20.458Z,38.55
2023-11-28T03:59:51.887Z,38.26
2023-11-28T04:00:23.322Z,38.37
2023-11-28T04:00:54.760Z,38.18
2023-11-28T04:01:26.230Z,38.45
2023-11-28T04:01:57.749Z,38.17
2023-11-28T04:02:29.309Z,38.25
2023-11-28T04:03:00.966Z,38.82
2023-11-28T04:03:32.589Z,38.31
2023-11-28T04:04:04.040Z,38.17
2023-11-28T04:04:35.671Z,38.48
2023-11-28T04:05:07.322Z,38.85
2023-11-28T04:05:38.827Z,38.61
2023-11-28T04:06:10.253Z,38.60
2023-11-28T04:06:41.680Z,38.50
2023-11-28T04:07:13.144Z,38.23
2023-11-28T04:07:44.709Z,38.11
2023-11-28T04:08:16.228Z,38.66
2023-11-28T04:08:47.653Z,38.66
2023-11-28T04:09:19.094Z,38.27
2023-11-28T04:09:50.523Z,38.59
2023-11-28T04:10:21.955Z,38.26
2023-11-28T04:10:53.428Z,38.37
2023-11-28T04:11:24.888Z,38.45
2023-11-28T04:11:56.320Z,38.82
2023-11-28T04:12:27.813Z,38.35
2023-11-28T04:12:59.258Z,38.66
2023-11-28T04:13:30.742Z,38.18
2023-11-28T04:14:02.210Z,38.59
2023-11-28T04:14:33.661Z,38.21
2023-11-28T04:15:05.115Z,38.45
2023-11-28T04:15:36.549Z,38.54
2023-11-28T04:16:07.981Z,38.52
2023-11-28T04:16:39.440Z,38.46
2023-11-28T04:17:11.019Z,38.41
2023-11-28T04:17:42.610Z,38.76
2023-11-28T04:18:14.198Z,38.37
2023-11-28T04:18:45.789Z,38.37
2023-11-28T04:19:17.423Z,38.71
2023-11-28T04:19:48.933Z,38.80
2023-11-28T04:20:20.402Z,38.38
2023-11-28T04:20:51.833Z,38.80
2023-11-28T04:21:23.279Z,38.85
2023-11-28T04:21:54.763Z,38.66
2023-11-28T04:22:26.249Z,38.58
2023-11-28T04:22:57.723Z,38.31
2023-11-28T04:23:29.166Z,38.19
2023-11-28T04:24:00.600Z,38.56
2023-11-28T04:24:32.035Z,38.27
2023-11-28T04:25:03.460Z,38.52
2023-11-28T04:25:34.939Z,38.80
2023-11-28T04:26:06.478Z,38.77
2023-11-28T04:26:38.048Z,38.45
2023-11-28T04:27:09.528Z,38.20
2023-11-28T04:27:40.971Z,38.73
2023-11-28T04:28:12.420Z,38.55
2023-11-28T04:28:43.946Z,38.48
2023-11-28T04:29:15.486Z,38.70
2023-11-28T04:29:46.956Z,38.91
2023-11-28T04:30:18.490Z,38.59
2023-11-28T04:30:49.991Z,38.52
2023-11-28T04:31:21.752Z,38.71
2023-11-28T04:31:53.425Z,38.41
2023-11-28T04:32:25.021Z,38.55
2023-11-28T04:32:56.547Z,38.67
2023-11-28T04:33:30.274Z,38.87
2023-11-28T04:34:03.343Z,38.71
2023-11-28T04:34:34.820Z,38.43
2023-11-28T04:35:06.314Z,38.68
2023-11-28T04:35:37.805Z,38.73
2023-11-28T04:36:09.306Z,38.66
2023-11-28T04:36:40.883Z,38.42
2023-11-28T04:37:12.307Z,38.51
2023-11-28T04:37:43.872Z,38.60
2023-11-28T04:38:15.400Z,38.25
2023-11-28T04:38:46.837Z,38.51
2023-11-28T04:39:18.266Z,38.43
2023-11-28T04:39:49.694Z,38.68
2023-11-28T04:40:21.130Z,38.65
2023-11-28T04:40:52.653Z,38.71
2023-11-28T04:41:24.167Z,38.49
2023-11-28T04:41:55.612Z,38.66
2023-11-28T04:42:27.050Z,38.69
2023-11-28T04:42:58.481Z,38.60
2023-11-28T04:43:29.989Z,38.59
2023-11-28T04:44:01.462Z,38.50
2023-11-28T04:44:32.890Z,38.91
2023-11-28T04:45:04.328Z,38.54
2023-11-28T04:45:35.842Z,38.52
2023-11-28T04:46:07.367Z,38.01
2023-11-28T04:46:38.917Z,38.55
2023-11-28T04:47:10.456Z,38.79
2023-11-28T04:47:42.027Z,38.81
2023-11-28T04:48:13.573Z,38.60
2023-11-28T04:48:45.033Z,38.75
2023-11-28T04:49:16.463Z,38.61
2023-11-28T04:49:47.934Z,38.88
2023-11-28T04:50:19.445Z,38.53
2023-11-28T04:50:50.882Z,38.62
2023-11-28T04:51:22.315Z,38.63
2023-11-28T04:51:53.790Z,38.66
2023-11-28T04:52:25.220Z,38.67
2023-11-28T04:52:56.694Z,38.85
2023-11-28T04:53:28.170Z,38.83
2023-11-28T04:53:59.619Z,38.50
2023-11-28T04:54:31.051Z,38.77
2023-11-28T04:55:02.506Z,38.91
2023-11-28T04:55:34.067Z,38.89
2023-11-28T04:56:05.616Z,38.86
2023-11-28T04:56:37.128Z,38.54
2023-11-28T04:57:08.571Z,38.86
2023-11-28T04:57:40.032Z,38.80
2023-11-28T04:58:11.504Z,38.67
2023-11-28T04:58:42.964Z,38.85
2023-11-28T04:59:14.416Z,38.66
2023-11-28T04:59:45.983Z,38.56
2023-11-28T05:00:17.563Z,37.96
2023-11-28T05:00:49.022Z,38.81
2023-11-28T05:01:20.456Z,38.60
2023-11-28T05:01:51.989Z,38.91
2023-11-28T05:02:23.545Z,38.58
2023-11-28T05:02:55.226Z,38.49
2023-11-28T05:03:26.899Z,38.33
2023-11-28T05:03:58.456Z,38.82
2023-11-28T05:04:30.137Z,38.45
2023-11-28T05:05:01.729Z,38.50
2023-11-28T05:05:33.167Z,38.82
2023-11-28T05:06:04.613Z,38.56
2023-11-28T05:06:36.046Z,38.90
2023-11-28T05:07:07.481Z,38.45
2023-11-28T05:07:38.945Z,38.32
2023-11-28T05:08:10.508Z,38.59
2023-11-28T05:08:42.014Z,38.52
2023-11-28T05:09:13.512Z,38.61
2023-11-28T05:09:45.001Z,38.68
2023-11-28T05:10:16.456Z,38.78
2023-11-28T05:10:47.917Z,38.67
2023-11-28T05:11:19.367Z,38.50
2023-11-28T05:11:50.803Z,38.42
2023-11-28T05:12:22.247Z,38.68
2023-11-28T05:12:53.677Z,38.51
2023-11-28T05:13:25.118Z,38.58
2023-11-28T05:13:56.658Z,38.79
2023-11-28T05:14:28.200Z,38.50
2023-11-28T05:14:59.638Z,38.58
2023-11-28T05:15:31.063Z,38.58
2023-11-28T05:16:02.507Z,38.68
2023-11-28T05:16:44.926Z,38.64
2023-11-28T05:17:19.858Z,38.86
2023-11-28T05:17:51.358Z,38.46
2023-11-28T05:18:23.039Z,38.92
2023-11-28T05:18:54.669Z,38.40
2023-11-28T05:19:26.181Z,38.46
2023-11-28T05:19:57.659Z,38.63
2023-11-28T05:20:29.097Z,39.03
2023-11-28T05:21:00.552Z,38.37
2023-11-28T05:21:31.981Z,39.01
2023-11-28T05:22:03.424Z,38.54
2023-11-28T05:22:34.897Z,38.74
2023-11-28T05:23:06.430Z,38.81
2023-11-28T05:23:37.960Z,38.45
2023-11-28T05:24:09.401Z,38.80
2023-11-28T05:24:40.834Z,38.87
2023-11-28T05:25:12.323Z,38.63
2023-11-28T05:25:43.805Z,38.71
2023-11-28T05:26:15.271Z,38.83
2023-11-28T05:26:46.700Z,39.06
2023-11-28T05:27:18.147Z,38.88
2023-11-28T05:27:49.619Z,38.99
2023-11-28T05:28:21.105Z,38.45
2023-11-28T05:28:52.619Z,38.32
2023-11-28T05:29:24.100Z,38.83
2023-11-28T05:29:55.541Z,38.51
2023-11-28T05:30:26.977Z,38.74
2023-11-28T05:30:58.432Z,38.70
2023-11-28T05:31:29.875Z,38.76
2023-11-28T05:32:01.340Z,38.73
2023-11-28T05:32:32.835Z,38.52
2023-11-28T05:33:04.377Z,38.54
2023-11-28T05:33:35.978Z,38.68
2023-11-28T05:34:07.408Z,38.74
2023-11-28T05:34:38.849Z,38.63
2023-11-28T05:35:10.388Z,38.95
2023-11-28T05:35:41.923Z,38.60
2023-11-28T05:36:13.371Z,38.62
2023-11-28T05:36:44.813Z,38.79
2023-11-28T05:37:16.242Z,38.55
2023-11-28T05:37:47.790Z,38.81
2023-11-28T05:38:19.263Z,38.47
2023-11-28T05:38:50.691Z,38.61
2023-11-28T05:39:22.141Z,38.71
2023-11-28T05:39:53.588Z,38.84
2023-11-28T05:40:25.047Z,38.79
2023-11-28T05:40:56.513Z,38.60
2023-11-28T05:41:27.982Z,38.74
2023-11-28T05:41:59.415Z,38.79
2023-11-28T05:42:30.896Z,38.92
2023-11-28T05:43:02.502Z,38.69
2023-11-28T05:43:34.007Z,38.72
2023-11-28T05:44:05.502Z,38.93
2023-11-28T05:44:39.147Z,38.62
2023-11-28T05:45:11.393Z,38.69
2023-11-28T05:45:42.823Z,38.88
2023-11-28T05:46:14.287Z,38.50
2023-11-28T05:46:45.794Z,38.70
2023-11-28T05:47:17.350Z,38.74
2023-11-28T05:47:48.996Z,38.50
2023-11-28T05:48:20.501Z,38.73
2023-11-28T05:48:51.964Z,39.05
2023-11-28T05:49:23.404Z,38.48
2023-11-28T05:49:54.894Z,38.43
2023-11-28T05:50:26.377Z,38.99
2023-11-28T05:50:57.806Z,38.63
2023-11-28T05:51:29.256Z,38.68
2023-11-28T05:52:00.787Z,38.91
2023-11-28T05:52:32.295Z,38.97
2023-11-28T05:53:03.810Z,38.80
2023-11-28T05:53:35.291Z,38.72
2023-11-28T05:54:06.752Z,38.48
2023-11-28T05:54:38.188Z,38.76
2023-11-28T05:55:09.636Z,38.59
2023-11-28T05:55:41.096Z,39.00
2023-11-28T05:56:12.563Z,38.90
2023-11-28T05:56:44.111Z,38.84
2023-11-28T05:57:15.574Z,39.02
2023-11-28T05:57:46.999Z,38.75
2023-11-28T05:58:18.428Z,38.65
2023-11-28T05:58:49.903Z,38.61
2023-11-28T05:59:21.362Z,38.62
2023-11-28T05:59:52.791Z,38.65
2023-11-28T06:00:24.229Z,38.82
2023-11-28T06:00:55.660Z,38.57
2023-11-28T06:01:27.148Z,38.65
2023-11-28T06:01:58.723Z,38.94
2023-11-28T06:02:30.366Z,38.84
2023-11-28T06:03:02.029Z,38.94
2023-11-28T06:03:33.559Z,39.12
2023-11-28T06:04:05.111Z,38.80
2023-11-28T06:04:36.721Z,38.95
2023-11-28T06:05:08.241Z,38.97
2023-11-28T06:05:41.943Z,39.00
2023-11-28T06:06:14.867Z,39.13
2023-11-28T06:06:46.349Z,38.64
2023-11-28T06:07:17.835Z,38.60
2023-11-28T06:07:49.305Z,38.73
2023-11-28T06:08:20.744Z,39.11
2023-11-28T06:08:52.188Z,38.96
2023-11-28T06:09:23.632Z,38.88
2023-11-28T06:09:55.081Z,38.99
2023-11-28T06:10:26.527Z,38.87
2023-11-28T06:10:58.045Z,39.04
2023-11-28T06:11:29.572Z,38.99
2023-11-28T06:12:04.199Z,38.74
2023-11-28T06:12:36.248Z,38.56
2023-11-28T06:13:07.674Z,38.91
2023-11-28T06:13:39.169Z,39.06
2023-11-28T06:14:10.671Z,39.08
2023-11-28T06:14:42.115Z,39.19
2023-11-28T06:15:13.551Z,38.60
2023-11-28T06:15:45.065Z,38.86
2023-11-28T06:16:16.581Z,38.90
2023-11-28T06:16:48.073Z,38.57
2023-11-28T06:17:19.528Z,38.79
2023-11-28T06:17:50.996Z,38.81
2023-11-28T06:18:22.501Z,39.14
2023-11-28T06:18:53.947Z,38.73
2023-11-28T06:19:25.424Z,39.11
2023-11-28T06:19:56.879Z,38.80
2023-11-28T06:20:28.429Z,38.90
2023-11-28T06:20:59.883Z,39.18
2023-11-28T06:21:31.322Z,39.17
2023-11-28T06:22:02.755Z,38.38
2023-11-28T06:22:34.261Z,38.91
2023-11-28T06:23:05.787Z,38.76
2023-11-28T06:23:37.252Z,38.63
2023-11-28T06:24:08.698Z,38.76
2023-11-28T06:24:40.131Z,38.80
2023-11-28T06:25:11.578Z,38.60
2023-11-28T06:25:43.105Z,38.96
2023-11-28T06:26:14.603Z,39.17
2023-11-28T06:26:46.035Z,39.02
2023-11-28T06:27:17.470Z,38.74
2023-11-28T06:27:48.900Z,39.02
2023-11-28T06:28:20.331Z,39.25
2023-11-28T06:28:51.786Z,38.99
2023-11-28T06:29:23.321Z,38.84
2023-11-28T06:29:54.859Z,38.87
2023-11-28T06:30:28.229Z,38.99
2023-11-28T06:31:00.304Z,38.85
2023-11-28T06:31:31.892Z,38.82
2023-11-28T06:32:03.363Z,38.54
2023-11-28T06:32:38.084Z,38.47
2023-11-28T06:33:09.860Z,38.99
2023-11-28T06:33:41.337Z,38.73
2023-11-28T06:34:12.909Z,38.85
2023-11-28T06:34:44.547Z,38.79
2023-11-28T06:35:16.168Z,38.57
2023-11-28T06:35:47.865Z,38.91
2023-11-28T06:36:19.712Z,39.28
2023-11-28T06:36:51.234Z,39.13
2023-11-28T06:37:22.667Z,38.89
2023-11-28T06:37:54.133Z,38.84
2023-11-28T06:38:25.637Z,38.72
2023-11-28T06:38:57.101Z,39.03
2023-11-28T06:39:28.597Z,38.71
2023-11-28T06:40:00.035Z,38.88
2023-11-28T06:40:31.482Z,38.94
2023-11-28T06:41:03.056Z,39.05
2023-11-28T06:41:34.530Z,38.75
2023-11-28T06:42:05.967Z,39.28
2023-11-28T06:42:37.418Z,38.79
2023-11-28T06:43:08.850Z,38.68
2023-11-28T06:43:40.353Z,38.97
2023-11-28T06:44:11.901Z,38.51
2023-11-28T06:44:43.388Z,39.07
2023-11-28T06:45:14.861Z,39.14
2023-11-28T06:45:46.374Z,38.66
2023-11-28T06:46:17.819Z,38.90